Time;durP1;ratioP1;P1;durP2;ratioP2;P2;SDS_P1;SDS_P2;PMS_P1;PMS_P2;Temp;Humidity;BMP_temperature;BMP_pressure;BME280_temperature;BME280_humidity;BME280_pressure;Samples;Min_cycle;Max_cycle;Signal;HPM_P1;HPM_P2
2021/04/02 00:00:48;;;;;;;4.60;4.30;;;;;;;8.29;63.64;101189.84;5061569;28;20258;-81
2021/04/02 00:03:17;;;;;;;4.40;4.10;;;;;;;8.22;63.63;101192.41;5068489;28;20244;-81
2021/04/02 00:05:43;;;;;;;4.17;3.87;;;;;;;8.11;63.93;101189.78;5067032;28;20223;-79
2021/04/02 00:08:10;;;;;;;4.90;4.50;;;;;;;8.10;64.46;101191.50;5054565;28;20205;-82
2021/04/02 00:10:44;;;;;;;5.27;4.80;;;;;;;8.02;65.15;101184.56;5065104;28;20648;-81
2021/04/02 00:13:10;;;;;;;4.97;4.53;;;;;;;7.96;64.91;101181.06;5072213;28;20204;-80
2021/04/02 00:15:36;;;;;;;4.90;4.50;;;;;;;7.91;65.59;101185.38;5065349;28;20212;-81
2021/04/02 00:18:02;;;;;;;5.43;5.00;;;;;;;7.89;64.97;101192.31;5072597;28;20202;-80
2021/04/02 00:20:28;;;;;;;5.30;4.90;;;;;;;7.92;64.64;101194.91;5111063;22;20860;-80
2021/04/02 00:22:53;;;;;;;4.70;4.40;;;;;;;7.88;64.92;101187.97;5065824;28;20208;-81
2021/04/02 00:25:20;;;;;;;5.07;4.67;;;;;;;7.87;65.08;101183.63;5060806;28;20209;-81
2021/04/02 00:27:46;;;;;;;4.37;4.07;;;;;;;7.89;65.10;101188.84;5060153;28;20199;-82
2021/04/02 00:30:16;;;;;;;4.03;3.70;;;;;;;7.92;65.58;101181.03;5058829;28;20201;-80
2021/04/02 00:32:42;;;;;;;4.63;4.23;;;;;;;7.91;64.58;101181.94;5072876;28;20196;-80
2021/04/02 00:35:10;;;;;;;4.80;4.50;;;;;;;7.86;64.98;101184.47;5054397;28;20205;-81
2021/04/02 00:37:36;;;;;;;4.70;4.40;;;;;;;7.79;64.74;101185.34;5068666;28;20202;-82
2021/04/02 00:40:05;;;;;;;4.00;3.70;;;;;;;7.78;64.76;101175.78;5051848;28;20219;-81
2021/04/02 00:42:31;;;;;;;5.37;4.97;;;;;;;7.79;64.73;101174.94;5050201;28;20657;-81
2021/04/02 00:44:57;;;;;;;4.73;4.43;;;;;;;7.81;64.98;101177.53;5054203;28;20212;-81
2021/04/02 00:47:23;;;;;;;5.00;4.60;;;;;;;7.84;64.43;101174.94;5050296;28;20219;-82
2021/04/02 00:49:49;;;;;;;6.10;5.60;;;;;;;7.82;64.68;101180.13;5058569;28;20217;-81
2021/04/02 00:52:15;;;;;;;5.83;5.30;;;;;;;7.76;64.57;101177.50;5050257;28;20724;-82
2021/04/02 00:54:41;;;;;;;4.00;3.70;;;;;;;7.69;64.24;101173.13;5056861;28;20209;-81
2021/04/02 00:57:07;;;;;;;4.83;4.47;;;;;;;7.57;65.03;101171.34;5058629;28;20571;-81
2021/04/02 00:59:34;;;;;;;5.40;5.00;;;;;;;7.55;65.20;101163.56;5047436;28;20202;-82
2021/04/02 01:01:59;;;;;;;4.80;4.50;;;;;;;7.56;65.71;101175.69;5052281;28;20503;-80
2021/04/02 01:04:25;;;;;;;4.57;4.27;;;;;;;7.59;65.26;101171.38;5051662;28;20202;-80
2021/04/02 01:06:51;;;;;;;3.70;3.50;;;;;;;7.59;64.35;101173.97;5055447;28;20232;-81
2021/04/02 01:09:17;;;;;;;3.80;3.60;;;;;;;7.53;64.10;101170.50;5050886;28;20266;-81
2021/04/02 01:11:43;;;;;;;4.50;4.20;;;;;;;7.51;64.71;101173.91;5055518;28;20273;-81
2021/04/02 01:14:09;;;;;;;4.57;4.27;;;;;;;7.48;65.38;101174.78;5043737;28;20199;-80
2021/04/02 01:16:37;;;;;;;4.70;4.40;;;;;;;7.46;65.33;101171.31;5057827;28;20206;-81
2021/04/02 01:19:10;;;;;;;3.97;3.67;;;;;;;7.46;65.94;101175.63;5054414;28;20266;-80
2021/04/02 01:21:41;;;;;;;4.80;4.47;;;;;;;7.46;65.55;101171.31;5053376;28;20233;-81
2021/04/02 01:24:17;;;;;;;4.83;4.53;;;;;;;7.41;65.41;101175.59;5056887;28;20194;-81
2021/04/02 01:26:57;;;;;;;5.87;5.47;;;;;;;7.42;65.86;101169.53;5058233;28;20206;-81
2021/04/02 01:29:26;;;;;;;4.80;4.40;;;;;;;7.39;65.81;101172.13;5051622;28;20197;-81
2021/04/02 01:31:54;;;;;;;4.07;3.77;;;;;;;7.34;65.76;101176.44;5059988;28;20223;-81
2021/04/02 01:34:24;;;;;;;3.83;3.63;;;;;;;7.30;65.71;101177.28;5068516;28;20193;-81
2021/04/02 01:36:53;;;;;;;3.57;3.37;;;;;;;7.20;66.39;101176.34;5082935;28;20221;-81
2021/04/02 01:39:19;;;;;;;4.13;3.83;;;;;;;7.08;66.86;101178.84;5068235;28;20185;-80
2021/04/02 01:41:49;;;;;;;3.63;3.43;;;;;;;7.12;66.16;101178.03;5057695;28;20228;-80
2021/04/02 01:44:17;;;;;;;3.17;2.97;;;;;;;7.05;66.88;101174.50;5050514;28;20284;-80
2021/04/02 01:46:44;;;;;;;3.80;3.40;;;;;;;7.00;67.46;101183.09;5056564;28;20203;-80
2021/04/02 01:49:11;;;;;;;3.83;3.63;;;;;;;6.92;67.11;101181.31;5058888;28;20748;-80
2021/04/02 01:51:41;;;;;;;3.60;3.40;;;;;;;6.93;67.58;101174.41;5063614;28;20612;-80
2021/04/02 01:54:07;;;;;;;4.00;3.80;;;;;;;6.89;67.88;101183.03;5054473;28;20583;-80
2021/04/02 01:56:35;;;;;;;3.70;3.50;;;;;;;6.89;67.67;101191.66;5053017;28;20228;-80
2021/04/02 01:59:03;;;;;;;3.63;3.43;;;;;;;6.89;67.74;101190.81;5052555;28;20202;-80
2021/04/02 02:01:35;;;;;;;3.80;3.50;;;;;;;6.89;68.28;101186.47;5058214;28;20232;-80
2021/04/02 02:04:05;;;;;;;3.43;3.23;;;;;;;6.88;67.67;101182.16;5065407;28;20670;-80
2021/04/02 02:06:31;;;;;;;3.13;2.93;;;;;;;6.89;67.22;101181.28;5055076;28;20269;-80
2021/04/02 02:08:58;;;;;;;3.03;2.83;;;;;;;6.90;67.48;101177.00;5065550;28;20205;-80
2021/04/02 02:11:27;;;;;;;3.37;3.17;;;;;;;6.87;67.85;101184.75;5054618;28;20226;-80
2021/04/02 02:14:07;;;;;;;3.30;3.10;;;;;;;6.87;67.60;101177.81;5067425;28;20689;-80
2021/04/02 02:16:34;;;;;;;2.93;2.77;;;;;;;6.92;67.36;101180.47;5062860;28;20616;-80
2021/04/02 02:19:00;;;;;;;2.77;2.67;;;;;;;6.86;67.43;101188.22;5065207;28;20259;-81
2021/04/02 02:21:28;;;;;;;2.80;2.60;;;;;;;6.83;67.36;101189.03;5062564;28;20236;-80
2021/04/02 02:23:55;;;;;;;2.60;2.50;;;;;;;6.88;67.75;101181.31;5054522;28;20200;-80
2021/04/02 02:26:21;;;;;;;2.80;2.70;;;;;;;6.84;67.60;101184.69;5054174;28;20216;-80
2021/04/02 02:28:48;;;;;;;2.73;2.53;;;;;;;6.80;67.68;101185.53;5065457;28;20216;-80
2021/04/02 02:31:13;;;;;;;2.77;2.57;;;;;;;6.86;67.71;101190.81;5057036;28;20279;-80
2021/04/02 02:33:40;;;;;;;2.70;2.60;;;;;;;6.82;67.74;101184.72;5045910;28;20208;-81
2021/04/02 02:36:06;;;;;;;2.30;2.20;;;;;;;6.84;68.14;101192.47;5059110;28;20269;-79
2021/04/02 02:38:33;;;;;;;2.60;2.50;;;;;;;6.89;67.47;101185.63;5072167;28;20197;-81
2021/04/02 02:41:00;;;;;;;2.20;2.10;;;;;;;6.93;66.92;101188.25;5054028;28;20849;-81
2021/04/02 02:43:26;;;;;;;2.27;2.13;;;;;;;6.92;66.92;101185.66;5057576;28;20198;-82
2021/04/02 02:45:52;;;;;;;2.40;2.30;;;;;;;6.97;67.25;101191.72;5038774;28;20205;-81
2021/04/02 02:48:18;;;;;;;2.80;2.60;;;;;;;6.93;66.75;101193.44;5052033;28;20207;-81
2021/04/02 02:50:47;;;;;;;2.53;2.43;;;;;;;6.94;66.80;101194.31;5052698;28;20231;-80
2021/04/02 02:53:16;;;;;;;2.33;2.23;;;;;;;6.86;66.89;101201.19;5050356;28;20671;-80
2021/04/02 02:55:46;;;;;;;2.73;2.53;;;;;;;6.86;67.19;101203.78;5046316;28;20702;-80
2021/04/02 02:58:14;;;;;;;2.80;2.60;;;;;;;6.88;67.73;101202.06;5048822;28;20258;-80
2021/04/02 03:00:42;;;;;;;2.50;2.40;;;;;;;6.85;66.81;101205.47;5046007;28;20649;-81
2021/04/02 03:03:15;;;;;;;2.70;2.60;;;;;;;6.79;67.97;101208.03;5045211;28;20196;-81
2021/04/02 03:05:43;;;;;;;2.30;2.20;;;;;;;6.83;67.62;101206.31;5052960;28;20198;-81
2021/04/02 03:08:11;;;;;;;2.20;2.10;;;;;;;6.81;67.32;101205.44;5055934;28;20208;-81
2021/04/02 03:10:38;;;;;;;2.67;2.50;;;;;;;6.80;67.21;101195.91;5055487;28;20225;-81
2021/04/02 03:13:06;;;;;;;2.30;2.20;;;;;;;6.76;66.70;101201.09;5057726;28;20247;-81
2021/04/02 03:15:33;;;;;;;2.40;2.30;;;;;;;6.77;67.22;101199.34;5055353;28;20212;-81
2021/04/02 03:18:03;;;;;;;2.50;2.40;;;;;;;6.76;67.12;101197.63;5056731;28;20247;-81
2021/04/02 03:20:30;;;;;;;2.20;2.10;;;;;;;6.74;66.82;101197.59;5057478;28;20229;-82
2021/04/02 03:22:57;;;;;;;2.30;2.20;;;;;;;6.71;66.77;101192.38;5054254;28;20231;-80
2021/04/02 03:25:25;;;;;;;2.20;2.10;;;;;;;6.69;67.53;101198.41;5046350;28;20209;-81
2021/04/02 03:27:54;;;;;;;2.07;1.97;;;;;;;6.66;67.35;101185.41;5050910;28;20222;-80
2021/04/02 03:30:24;;;;;;;2.00;1.90;;;;;;;6.64;67.28;101189.72;5045904;28;20242;-80
2021/04/02 03:32:55;;;;;;;2.10;2.00;;;;;;;6.65;67.16;101191.47;5051126;28;20200;-81
2021/04/02 03:35:22;;;;;;;1.97;1.87;;;;;;;6.65;66.63;101197.50;5052962;28;20190;-81
2021/04/02 03:37:51;;;;;;;2.00;1.90;;;;;;;6.65;67.09;101200.09;5056320;28;20205;-81
2021/04/02 03:40:20;;;;;;;2.20;2.10;;;;;;;6.65;67.07;101200.09;5045265;28;20225;-81
2021/04/02 03:42:51;;;;;;;2.10;2.00;;;;;;;6.63;66.77;101200.97;5053672;28;20326;-81
2021/04/02 03:45:18;;;;;;;1.90;1.80;;;;;;;6.66;67.51;101200.97;5046165;28;20210;-80
2021/04/02 03:47:47;;;;;;;1.90;1.80;;;;;;;6.71;67.04;101207.09;5061832;28;20215;-80
2021/04/02 03:50:16;;;;;;;1.70;1.60;;;;;;;6.71;66.91;101210.53;5057341;28;20197;-81
2021/04/02 03:52:45;;;;;;;2.00;1.90;;;;;;;6.71;66.52;101213.13;5056135;28;20210;-81
2021/04/02 03:55:14;;;;;;;2.03;1.93;;;;;;;6.68;67.62;101220.00;5047187;28;20267;-81
2021/04/02 03:57:43;;;;;;;2.10;2.00;;;;;;;6.72;67.45;101219.22;5061816;28;20202;-81
2021/04/02 04:00:15;;;;;;;1.80;1.70;;;;;;;6.77;67.07;101220.09;5047027;28;20225;-80
2021/04/02 04:02:44;;;;;;;1.80;1.70;;;;;;;6.78;67.02;101215.78;5062650;28;20575;-79
2021/04/02 04:05:14;;;;;;;1.97;1.87;;;;;;;6.75;67.00;101214.03;5058255;28;20208;-80
2021/04/02 04:07:43;;;;;;;1.87;1.77;;;;;;;6.73;67.44;101207.97;5066607;28;20203;-80
2021/04/02 04:10:12;;;;;;;2.00;1.70;;;;;;;6.75;66.30;101207.13;5058767;28;20584;-80
2021/04/02 04:12:39;;;;;;;1.63;1.53;;;;;;;6.76;66.53;101211.47;5066262;28;20202;-79
2021/04/02 04:15:06;;;;;;;1.80;1.70;;;;;;;6.71;66.15;101218.31;5059828;28;20249;-79
2021/04/02 04:17:33;;;;;;;1.57;1.47;;;;;;;6.73;66.40;101214.03;5061206;28;20294;-80
2021/04/02 04:20:01;;;;;;;1.90;1.80;;;;;;;6.77;66.85;101214.91;5063958;28;20203;-80
2021/04/02 04:22:29;;;;;;;1.70;1.60;;;;;;;6.80;67.38;101203.69;5063848;28;20214;-80
2021/04/02 04:24:56;;;;;;;1.40;1.40;;;;;;;6.76;66.43;101206.28;5055440;28;20223;-80
2021/04/02 04:27:25;;;;;;;1.20;1.20;;;;;;;6.75;66.67;101199.34;5064345;28;20673;-80
2021/04/02 04:29:53;;;;;;;1.40;1.30;;;;;;;6.69;67.35;101206.19;5037784;28;20249;-80
2021/04/02 04:32:22;;;;;;;1.63;1.30;;;;;;;6.67;66.82;101206.19;5063795;28;20206;-79
2021/04/02 04:34:49;;;;;;;1.20;1.20;;;;;;;6.72;67.11;101212.28;5057556;28;20204;-80
2021/04/02 04:37:18;;;;;;;1.53;1.43;;;;;;;6.73;66.26;101208.84;5064628;28;20678;-80
2021/04/02 04:39:48;;;;;;;1.30;1.20;;;;;;;6.81;65.80;101202.84;5063064;28;20213;-81
2021/04/02 04:42:17;;;;;;;1.20;1.20;;;;;;;6.81;66.25;101197.66;5066987;28;20227;-79
2021/04/02 04:44:47;;;;;;;1.30;1.20;;;;;;;6.84;65.52;101192.47;5054447;28;20200;-80
2021/04/02 04:47:13;;;;;;;1.30;1.27;;;;;;;6.81;66.03;101195.94;5052885;28;20544;-80
2021/04/02 04:49:39;;;;;;;1.20;1.20;;;;;;;6.86;65.44;101196.84;5056864;28;20200;-80
2021/04/02 04:52:08;;;;;;;1.23;1.13;;;;;;;6.90;65.35;101192.56;5058678;28;20765;-80
2021/04/02 04:54:34;;;;;;;1.87;1.40;;;;;;;6.99;64.78;101183.97;5053079;28;20270;-80
2021/04/02 04:57:02;;;;;;;1.40;1.30;;;;;;;7.01;65.08;101184.84;5066311;28;20211;-80
2021/04/02 04:59:30;;;;;;;1.40;1.30;;;;;;;6.95;65.50;101189.13;5062809;28;20207;-81
2021/04/02 05:01:56;;;;;;;2.77;1.70;;;;;;;6.93;66.21;101187.38;5065644;28;20227;-80
2021/04/02 05:04:23;;;;;;;2.10;2.00;;;;;;;6.92;65.58;101191.72;5063386;28;20571;-79
2021/04/02 05:06:55;;;;;;;2.13;1.93;;;;;;;6.94;65.66;101199.50;5060194;28;20578;-80
2021/04/02 05:09:22;;;;;;;2.23;2.03;;;;;;;6.98;65.83;101190.91;5042099;28;20676;-79
2021/04/02 05:11:51;;;;;;;1.90;1.80;;;;;;;7.01;64.94;101190.03;5066006;28;20224;-80
2021/04/02 05:14:20;;;;;;;3.50;3.20;;;;;;;7.01;64.88;101190.03;5060228;28;20207;-80
2021/04/02 05:16:47;;;;;;;3.50;3.20;;;;;;;6.99;64.91;101191.75;5054778;28;20200;-81
2021/04/02 05:19:16;;;;;;;5.43;5.03;;;;;;;7.00;65.37;101193.47;5065265;28;20205;-82
2021/04/02 05:21:43;;;;;;;6.30;5.80;;;;;;;7.06;64.94;101184.03;5065489;28;20259;-81
2021/04/02 05:24:10;;;;;;;6.00;5.50;;;;;;;7.04;64.90;101193.53;5069190;28;20262;-82
2021/04/02 05:26:36;;;;;;;6.00;5.50;;;;;;;7.05;65.27;101189.19;5047956;28;20204;-82
2021/04/02 05:29:02;;;;;;;6.70;6.17;;;;;;;7.11;65.69;101194.44;5057234;28;20195;-82
2021/04/02 05:31:30;;;;;;;6.70;6.20;;;;;;;7.09;65.92;101199.59;5058743;28;20220;-81
2021/04/02 05:33:56;;;;;;;6.57;5.97;;;;;;;7.04;65.93;101192.66;5050777;28;20211;-81
2021/04/02 05:36:22;;;;;;;4.93;4.43;;;;;;;7.10;65.34;101193.56;5047423;28;20208;-82
2021/04/02 05:38:48;;;;;;;3.70;3.40;;;;;;;7.12;65.03;101201.38;5069820;28;20208;-83
2021/04/02 05:41:19;;;;;;;4.17;2.70;;;;;;;7.12;64.65;101199.66;5071647;28;20224;-82
2021/04/02 05:43:46;;;;;;;2.70;2.50;;;;;;;7.10;64.79;101213.47;5065329;28;20191;-81
2021/04/02 05:46:15;;;;;;;3.23;3.03;;;;;;;7.09;64.71;101217.78;5050996;28;20223;-81
2021/04/02 05:48:44;;;;;;;2.70;2.50;;;;;;;7.09;64.27;101217.78;5049944;28;20205;-81
2021/04/02 05:51:10;;;;;;;2.67;2.47;;;;;;;7.06;65.24;101214.31;5048216;28;20225;-80
2021/04/02 05:53:38;;;;;;;2.63;2.07;;;;;;;7.08;64.77;101210.88;5048557;28;20687;-80
2021/04/02 05:56:05;;;;;;;2.60;2.40;;;;;;;7.10;64.55;101213.47;5050193;28;20197;-81
2021/04/02 05:58:31;;;;;;;2.47;2.27;;;;;;;7.13;64.36;101208.28;5052108;28;20195;-81
2021/04/02 06:00:58;;;;;;;2.50;1.80;;;;;;;7.11;64.54;101221.25;5051923;28;20227;-80
2021/04/02 06:03:25;;;;;;;2.07;1.97;;;;;;;7.17;63.18;101212.66;5052820;28;20200;-81
2021/04/02 06:05:52;;;;;;;1.27;1.17;;;;;;;7.07;64.29;101218.63;5051975;28;20200;-81
2021/04/02 06:08:18;;;;;;;1.37;1.27;;;;;;;6.95;64.32;101222.84;5055048;28;20207;-81
2021/04/02 06:10:45;;;;;;;1.50;1.27;;;;;;;7.06;64.22;101230.75;5053531;28;20218;-81
2021/04/02 06:13:11;;;;;;;1.07;0.80;;;;;;;7.09;63.77;101225.56;5051271;28;20193;-81
2021/04/02 06:15:37;;;;;;;0.83;0.83;;;;;;;7.15;63.53;101224.75;5052995;28;20574;-81
2021/04/02 06:18:06;;;;;;;0.90;0.90;;;;;;;7.19;63.66;101212.66;5049957;28;20203;-82
2021/04/02 06:20:35;;;;;;;1.00;1.00;;;;;;;7.16;64.25;101211.78;5053719;28;20251;-81
2021/04/02 06:23:03;;;;;;;1.23;0.80;;;;;;;7.15;63.67;101207.47;5046340;28;20205;-82
2021/04/02 06:25:29;;;;;;;0.80;0.80;;;;;;;7.22;63.22;101199.72;5050569;28;20236;-82
2021/04/02 06:27:55;;;;;;;1.27;0.97;;;;;;;7.23;63.14;101198.84;5051436;28;20206;-82
2021/04/02 06:30:23;;;;;;;0.77;0.77;;;;;;;7.29;63.10;101199.75;5045819;28;20288;-82
2021/04/02 06:32:51;;;;;;;0.83;0.83;;;;;;;7.28;62.53;101208.41;5051808;28;20195;-81
2021/04/02 06:35:17;;;;;;;0.90;0.90;;;;;;;7.18;62.83;101209.22;5045530;28;20193;-81
2021/04/02 06:37:45;;;;;;;0.70;0.70;;;;;;;7.20;63.95;101215.28;5059328;28;20212;-81
2021/04/02 06:40:16;;;;;;;0.70;0.70;;;;;;;7.35;63.41;101214.50;5050264;28;20201;-80
2021/04/02 06:42:44;;;;;;;0.80;0.80;;;;;;;7.13;64.28;101216.09;5057233;28;20245;-80
2021/04/02 06:45:11;;;;;;;1.30;1.00;;;;;;;7.00;63.93;101222.03;5046963;28;20269;-80
2021/04/02 06:47:39;;;;;;;1.10;1.00;;;;;;;6.66;64.85;101225.22;5056159;28;20200;-81
2021/04/02 06:50:19;;;;;;;1.30;1.20;;;;;;;6.84;64.34;101213.25;5058515;28;20227;-81
2021/04/02 06:52:50;;;;;;;1.20;1.10;;;;;;;6.98;64.46;101216.84;5058840;28;20194;-81
2021/04/02 06:55:18;;;;;;;1.23;1.03;;;;;;;7.08;63.77;101221.25;5050177;28;20657;-82
2021/04/02 06:57:47;;;;;;;2.20;2.00;;;;;;;6.82;65.51;101222.75;5062566;28;20211;-82
2021/04/02 07:00:19;;;;;;;1.70;1.60;;;;;;;6.90;65.70;101221.09;5046715;28;20309;-83
2021/04/02 07:02:47;;;;;;;1.53;1.43;;;;;;;6.81;65.47;101219.28;5060894;28;20204;-81
2021/04/02 07:05:16;;;;;;;1.73;1.30;;;;;;;6.88;64.89;101228.00;5048725;28;20236;-82
2021/04/02 07:07:44;;;;;;;1.27;1.17;;;;;;;6.99;63.93;101223.75;5051883;28;20293;-80
2021/04/02 07:10:11;;;;;;;2.70;2.07;;;;;;;6.75;63.31;101214.91;5049495;28;20233;-81
2021/04/02 07:12:43;;;;;;;2.50;2.40;;;;;;;6.90;63.37;101218.50;5050176;28;20741;-79
2021/04/02 07:15:09;;;;;;;1.73;1.60;;;;;;;7.09;62.71;101216.91;5047246;28;20202;-81
2021/04/02 07:17:36;;;;;;;2.27;2.07;;;;;;;7.23;62.33;101217.03;5062961;28;20210;-81
2021/04/02 07:20:03;;;;;;;1.77;1.67;;;;;;;7.35;61.58;101220.59;5059289;28;20196;-80
2021/04/02 07:22:31;;;;;;;2.03;1.83;;;;;;;7.50;61.49;101217.22;5061356;28;20204;-81
2021/04/02 07:24:58;;;;;;;2.40;2.30;;;;;;;7.35;60.29;101225.78;5043599;28;20209;-80
2021/04/02 07:27:26;;;;;;;2.93;2.73;;;;;;;7.00;62.27;101222.91;5059885;28;20252;-79
2021/04/02 07:29:53;;;;;;;2.93;2.73;;;;;;;7.25;62.04;101228.28;5052898;28;20197;-81
2021/04/02 07:32:19;;;;;;;3.07;2.87;;;;;;;7.34;62.19;101234.44;5064212;28;20698;-82
2021/04/02 07:34:45;;;;;;;4.00;3.70;;;;;;;7.12;62.58;101236.00;5054688;28;20209;-82
2021/04/02 07:37:12;;;;;;;4.20;3.90;;;;;;;6.70;63.21;101231.28;5060513;28;20288;-81
2021/04/02 07:39:38;;;;;;;4.80;4.40;;;;;;;6.77;63.10;101240.88;5065287;28;20728;-81
2021/04/02 07:42:05;;;;;;;4.90;4.53;;;;;;;6.52;64.15;101238.03;5068520;28;20230;-81
2021/04/02 07:44:36;;;;;;;5.67;5.17;;;;;;;6.40;64.58;101250.00;5064995;28;20599;-81
2021/04/02 07:47:08;;;;;;;5.33;4.93;;;;;;;6.44;64.93;101246.56;5064337;28;20627;-79
2021/04/02 07:49:39;;;;;;;7.13;6.57;;;;;;;6.52;64.97;101244.94;5064552;28;20201;-79
2021/04/02 07:52:05;;;;;;;6.10;5.60;;;;;;;6.54;65.11;101235.44;5070138;28;20231;-79
2021/04/02 07:54:34;;;;;;;6.87;6.37;;;;;;;6.71;64.73;101228.69;5060714;28;20221;-80
2021/04/02 07:57:05;;;;;;;8.27;7.63;;;;;;;6.88;64.47;101233.19;5058548;28;20207;-79
2021/04/02 07:59:36;;;;;;;7.50;6.90;;;;;;;7.08;62.58;101233.38;5051181;28;20200;-78
2021/04/02 08:02:04;;;;;;;6.60;6.10;;;;;;;6.83;63.79;101233.13;5066664;28;20596;-81
2021/04/02 08:04:38;;;;;;;6.90;6.30;;;;;;;6.86;63.25;101228.00;5060778;28;20221;-80
2021/04/02 08:07:10;;;;;;;6.63;6.13;;;;;;;7.08;62.63;101234.22;5065717;28;20201;-80
2021/04/02 08:09:40;;;;;;;7.63;7.00;;;;;;;7.17;62.46;101230.81;5060976;28;20201;-81
2021/04/02 08:12:09;;;;;;;7.70;7.00;;;;;;;7.44;62.72;101221.50;5067732;28;20246;-80
2021/04/02 08:14:36;;;;;;;6.87;6.27;;;;;;;7.46;61.86;101219.78;5062325;28;20197;-81
2021/04/02 08:17:07;;;;;;;6.43;5.93;;;;;;;7.72;62.18;101227.75;5068424;28;20198;-81
2021/04/02 08:19:35;;;;;;;7.77;7.17;;;;;;;7.60;62.23;101214.69;5065465;28;20664;-80
2021/04/02 08:22:05;;;;;;;8.07;7.37;;;;;;;7.70;62.82;101219.06;5073542;28;20232;-81
2021/04/02 08:24:34;;;;;;;9.10;8.40;;;;;;;7.53;63.24;101218.94;5066040;28;20211;-80
2021/04/02 08:27:00;;;;;;;9.00;8.20;;;;;;;7.63;62.67;101219.88;5069748;28;20214;-81
2021/04/02 08:29:29;;;;;;;8.53;7.90;;;;;;;7.75;61.94;101220.84;5058065;28;20213;-81
2021/04/02 08:31:57;;;;;;;8.57;7.87;;;;;;;7.54;63.72;101223.31;5068678;28;20302;-80
2021/04/02 08:34:25;;;;;;;9.60;8.80;;;;;;;7.38;64.38;101234.47;5066812;28;20208;-81
2021/04/02 08:36:53;;;;;;;9.50;8.70;;;;;;;7.50;64.64;101229.34;5052936;28;20204;-82
2021/04/02 08:39:23;;;;;;;9.20;8.40;;;;;;;7.52;64.27;101225.03;5059354;28;20209;-81
2021/04/02 08:41:49;;;;;;;10.03;9.23;;;;;;;7.48;64.75;101228.47;5050795;28;20283;-80
2021/04/02 08:44:16;;;;;;;9.77;8.97;;;;;;;7.47;65.17;101224.13;5060427;28;20214;-81
2021/04/02 08:46:44;;;;;;;9.90;9.10;;;;;;;7.53;65.15;101227.63;5058293;28;20209;-79
2021/04/02 08:49:12;;;;;;;9.53;8.83;;;;;;;7.34;64.22;101230.97;5059941;28;20675;-81
2021/04/02 08:51:39;;;;;;;10.50;9.60;;;;;;;7.29;65.73;101228.31;5058544;28;20224;-80
2021/04/02 08:54:12;;;;;;;9.77;8.97;;;;;;;7.36;66.49;101219.72;5055506;28;20209;-79
2021/04/02 08:56:40;;;;;;;9.63;8.83;;;;;;;7.19;67.63;101221.31;5053791;28;20208;-81
2021/04/02 08:59:08;;;;;;;7.47;6.87;;;;;;;7.04;67.76;101229.00;5050864;28;20307;-80
2021/04/02 09:01:37;;;;;;;9.00;7.67;;;;;;;7.04;68.15;101214.31;5055259;28;20904;-80
2021/04/02 09:04:05;;;;;;;6.97;6.27;;;;;;;7.20;66.10;101222.22;5050270;28;20231;-81
2021/04/02 09:06:31;;;;;;;6.77;6.27;;;;;;;7.08;65.96;101215.19;5057499;28;20215;-79
2021/04/02 09:08:57;;;;;;;7.47;6.87;;;;;;;7.19;67.16;101218.72;5056130;28;20203;-81
2021/04/02 09:11:23;;;;;;;7.32;6.72;;;;;;;7.51;66.37;101221.56;5042900;28;20397;-81
2021/04/02 09:13:50;;;;;;;7.97;7.27;;;;;;;7.47;66.61;101226.72;5046934;28;20204;-81
2021/04/02 09:16:19;;;;;;;7.50;7.00;;;;;;;7.49;65.49;101217.19;5055717;28;20209;-81
2021/04/02 09:18:50;;;;;;;7.10;6.50;;;;;;;7.45;65.42;101210.25;5057895;28;20664;-80
2021/04/02 09:21:17;;;;;;;6.50;6.00;;;;;;;7.49;66.00;101214.59;5059047;28;20229;-80
2021/04/02 09:23:45;;;;;;;5.23;4.83;;;;;;;7.59;61.92;101210.34;5057839;28;20208;-80
2021/04/02 09:26:11;;;;;;;6.50;5.90;;;;;;;7.74;62.01;101210.41;5048107;28;20262;-80
2021/04/02 09:28:38;;;;;;;6.73;6.07;;;;;;;7.56;63.69;101212.06;5056072;28;20208;-81
2021/04/02 09:31:17;;;;;;;5.53;5.13;;;;;;;7.45;64.09;101203.34;5048734;28;20241;-81
2021/04/02 09:33:44;;;;;;;6.73;6.13;;;;;;;7.42;65.30;101200.72;5051887;28;20219;-80
2021/04/02 09:36:11;;;;;;;7.17;6.63;;;;;;;7.40;66.68;101196.38;5055845;28;20212;-81
2021/04/02 09:38:37;;;;;;;7.53;6.83;;;;;;;7.43;67.54;101202.44;5053516;28;20819;-81
2021/04/02 09:41:03;;;;;;;7.03;6.33;;;;;;;7.28;68.57;101198.03;5054162;28;20228;-81
2021/04/02 09:43:49;;;;;;;7.53;6.77;;;;;;;7.28;67.93;101194.56;5054820;28;20208;-82
2021/04/02 09:46:29;;;;;;;6.63;6.13;;;;;;;7.18;67.88;101188.44;5050831;28;20215;-82
2021/04/02 09:49:03;;;;;;;6.57;6.07;;;;;;;7.32;67.33;101183.34;5052960;28;20224;-81
2021/04/02 09:51:30;;;;;;;6.40;5.90;;;;;;;7.31;67.85;101173.81;5056361;28;20226;-82
2021/04/02 09:53:56;;;;;;;6.63;6.10;;;;;;;6.98;69.69;101180.50;5063984;28;20580;-81
2021/04/02 09:56:22;;;;;;;7.07;6.47;;;;;;;7.25;68.43;101169.44;5051021;28;20205;-78
2021/04/02 09:58:48;;;;;;;6.90;6.17;;;;;;;7.25;66.93;101168.56;5074171;28;20190;-81
2021/04/02 10:01:14;;;;;;;7.70;6.90;;;;;;;7.36;66.97;101167.78;5076265;28;20223;-79
2021/04/02 10:03:40;;;;;;;7.07;6.43;;;;;;;7.51;65.67;101169.63;5090586;28;20191;-79
2021/04/02 10:06:06;;;;;;;5.77;5.27;;;;;;;7.37;65.48;101168.63;5085288;28;20666;-80
2021/04/02 10:08:32;;;;;;;6.83;5.83;;;;;;;7.33;67.37;101177.28;5056730;28;20632;-81
2021/04/02 10:10:58;;;;;;;7.83;6.23;;;;;;;7.15;67.37;101167.63;5050445;28;20253;-82
2021/04/02 10:13:25;;;;;;;6.30;5.70;;;;;;;7.25;67.07;101173.75;5060050;28;20206;-81
2021/04/02 10:15:51;;;;;;;8.03;5.47;;;;;;;7.16;66.87;101174.59;5059693;28;20228;-80
2021/04/02 10:18:17;;;;;;;5.57;5.07;;;;;;;6.82;66.68;101169.13;5056011;28;20208;-81
2021/04/02 10:20:44;;;;;;;6.03;5.43;;;;;;;6.81;67.72;101171.72;5063466;28;20283;-81
2021/04/02 10:23:10;;;;;;;7.47;5.53;;;;;;;6.68;68.15;101166.44;5065999;28;20255;-81
2021/04/02 10:25:36;;;;;;;7.53;5.83;;;;;;;6.89;68.55;101162.25;5050272;28;20202;-81
2021/04/02 10:28:03;;;;;;;6.73;5.27;;;;;;;7.09;66.76;101158.06;5046872;28;20198;-80
2021/04/02 10:30:29;;;;;;;5.00;4.47;;;;;;;6.99;65.40;101156.28;5044593;28;20723;-77
2021/04/02 10:32:55;;;;;;;5.33;4.57;;;;;;;7.08;66.28;101158.09;5049240;28;20239;-78
2021/04/02 10:35:22;;;;;;;4.97;4.57;;;;;;;6.88;66.89;101147.56;5045397;28;20675;-81
2021/04/02 10:37:48;;;;;;;8.43;5.07;;;;;;;7.06;67.12;101147.69;5053991;28;20193;-80
2021/04/02 10:40:16;;;;;;;6.80;4.80;;;;;;;7.42;64.94;101146.16;5048319;28;20206;-81
2021/04/02 10:42:42;;;;;;;5.80;5.20;;;;;;;7.49;65.92;101145.34;5070173;28;20305;-82
2021/04/02 10:45:08;;;;;;;7.97;7.17;;;;;;;7.62;64.29;101135.03;5049809;28;20604;-80
2021/04/02 10:47:34;;;;;;;6.17;4.93;;;;;;;7.50;64.40;101134.09;5067507;28;20232;-81
2021/04/02 10:50:01;;;;;;;7.40;6.50;;;;;;;7.65;64.44;101130.72;5065144;28;20199;-77
2021/04/02 10:52:26;;;;;;;7.40;6.20;;;;;;;7.83;64.54;101136.81;5070528;28;20201;-81
2021/04/02 10:54:53;;;;;;;9.10;7.60;;;;;;;7.85;65.67;101141.19;5062130;28;20206;-81
2021/04/02 10:57:19;;;;;;;8.30;7.57;;;;;;;7.68;64.20;101141.09;5062109;28;20256;-79
2021/04/02 10:59:45;;;;;;;11.37;7.90;;;;;;;7.92;64.51;101150.72;5046244;28;20212;-79
2021/04/02 11:02:11;;;;;;;11.40;8.87;;;;;;;7.95;64.13;101155.94;5045843;28;20239;-80
2021/04/02 11:04:40;;;;;;;8.63;7.83;;;;;;;8.07;62.84;101151.66;5046149;28;20718;-78
2021/04/02 11:07:06;;;;;;;9.10;7.93;;;;;;;7.85;63.44;101158.47;5046205;28;20319;-81
2021/04/02 11:09:31;;;;;;;8.23;7.43;;;;;;;7.87;63.27;101180.16;5045388;28;20737;-79
2021/04/02 11:11:58;;;;;;;8.00;6.83;;;;;;;7.50;64.86;101174.78;5043571;28;20226;-80
2021/04/02 11:14:24;;;;;;;9.43;6.57;;;;;;;7.45;66.04;101181.69;5044684;28;20207;-76
2021/04/02 11:16:50;;;;;;;11.77;5.80;;;;;;;7.30;65.94;101183.31;5044981;28;20208;-81
2021/04/02 11:19:16;;;;;;;6.47;5.20;;;;;;;7.16;64.59;101191.03;5045268;28;20626;-81
2021/04/02 11:21:52;;;;;;;5.53;4.29;;;;;;;7.05;64.51;101195.25;4686041;28;10002954;-79
2021/04/02 11:24:17;;;;;;;8.37;5.00;;;;;;;7.11;63.93;101197.91;5041761;28;20272;-80
2021/04/02 11:26:43;;;;;;;5.67;4.40;;;;;;;6.86;63.63;101198.59;5042485;28;20604;-79
2021/04/02 11:29:10;;;;;;;9.27;4.37;;;;;;;6.89;63.37;101185.63;5041393;28;20206;-78
2021/04/02 11:31:36;;;;;;;5.33;4.23;;;;;;;6.86;64.38;101181.28;5041730;28;20588;-78
2021/04/02 11:34:03;;;;;;;6.17;4.23;;;;;;;6.74;64.25;101182.03;5041443;28;20248;-81
2021/04/02 11:36:29;;;;;;;9.20;4.30;;;;;;;6.97;64.70;101171.81;5042523;28;20213;-79